Time;durP1;ratioP1;P1;durP2;ratioP2;P2;SDS_P1;SDS_P2;PMS_P1;PMS_P2;Temp;Humidity;BMP_temperature;BMP_pressure;BME280_temperature;BME280_humidity;BME280_pressure;Samples;Min_cycle;Max_cycle;Signal;HPM_P1;HPM_P2
2023/06/01 00:00:14;;;;;;;16.27;10.07;;;;;;;16.75;88.37;99491.91;5031926;28;20040;-75
2023/06/01 00:02:40;;;;;;;13.02;10.18;;;;;;;16.85;87.89;99484.81;5031560;28;20083;-76
2023/06/01 00:05:06;;;;;;;13.07;8.82;;;;;;;16.97;87.39;99480.97;5031855;28;20036;-76
2023/06/01 00:07:32;;;;;;;11.32;9.00;;;;;;;16.98;86.53;99472.09;5029363;28;20033;-76
2023/06/01 00:09:59;;;;;;;19.42;10.35;;;;;;;16.70;87.81;99483.72;5030530;28;20026;-76
2023/06/01 00:12:25;;;;;;;14.18;8.20;;;;;;;16.73;87.98;99476.53;5031428;28;20496;-75
2023/06/01 00:14:50;;;;;;;14.85;8.13;;;;;;;16.82;87.55;99468.63;5030398;28;20041;-75
2023/06/01 00:17:16;;;;;;;19.85;8.88;;;;;;;16.94;86.59;99476.91;5031336;28;20021;-76
2023/06/01 00:19:44;;;;;;;11.35;8.65;;;;;;;16.94;85.99;99474.06;5031301;28;20028;-76
2023/06/01 00:22:10;;;;;;;12.43;8.38;;;;;;;17.01;85.45;99476.22;5031214;28;20029;-76
2023/06/01 00:24:36;;;;;;;9.82;7.50;;;;;;;17.01;85.44;99472.56;5027817;28;20033;-76
2023/06/01 00:27:05;;;;;;;10.07;8.10;;;;;;;16.88;86.31;99474.78;5027951;28;20159;-76
2023/06/01 00:29:30;;;;;;;10.70;8.30;;;;;;;16.89;85.95;99479.22;5028033;28;20115;-76
2023/06/01 00:31:56;;;;;;;14.35;8.60;;;;;;;16.78;86.20;99479.84;5028841;28;20021;-76
2023/06/01 00:34:21;;;;;;;11.70;8.68;;;;;;;16.69;86.67;99479.28;5031371;28;20033;-76
2023/06/01 00:36:47;;;;;;;12.52;9.02;;;;;;;16.60;87.71;99479.53;5029987;28;20068;-75
2023/06/01 00:39:12;;;;;;;12.10;8.90;;;;;;;16.72;87.16;99483.38;5029743;28;20466;-76
2023/06/01 00:41:37;;;;;;;14.70;8.93;;;;;;;16.44;87.58;99476.03;5029975;28;20021;-76
2023/06/01 00:44:03;;;;;;;14.88;9.27;;;;;;;16.24;89.18;99481.69;5031139;28;20041;-76
2023/06/01 00:46:30;;;;;;;10.90;8.48;;;;;;;16.28;88.60;99489.03;5029993;28;20029;-76
2023/06/01 00:48:58;;;;;;;9.88;8.20;;;;;;;16.01;89.91;99488.09;5029740;28;20131;-76
2023/06/01 00:51:24;;;;;;;12.45;8.35;;;;;;;16.07;89.33;99483.81;5031047;28;20500;-76
2023/06/01 00:53:49;;;;;;;11.63;9.70;;;;;;;16.05;89.91;99494.66;5030936;28;20043;-76
2023/06/01 00:56:15;;;;;;;11.80;9.10;;;;;;;16.08;89.73;99498.72;5029750;28;20048;-75
2023/06/01 00:58:41;;;;;;;12.27;9.10;;;;;;;16.06;89.59;99496.28;5031023;28;20178;-76
2023/06/01 01:01:07;;;;;;;16.65;10.75;;;;;;;15.82;90.10;99488.88;5031169;28;20033;-76
2023/06/01 01:03:34;;;;;;;17.08;10.57;;;;;;;15.93;89.98;99491.97;5030140;28;20041;-76
2023/06/01 01:06:27;;;;;;;13.90;8.73;;;;;;;15.99;89.66;99496.13;5033156;28;20113;-76
2023/06/01 01:09:10;;;;;;;17.60;9.82;;;;;;;15.96;89.82;99492.03;5034682;28;20411;-76
2023/06/01 01:11:39;;;;;;;16.55;9.18;;;;;;;16.00;89.65;99486.47;5033776;28;20524;-76
2023/06/01 01:14:15;;;;;;;14.18;10.90;;;;;;;16.06;89.33;99495.44;5021477;28;20026;-76
2023/06/01 01:17:02;;;;;;;11.93;9.30;;;;;;;16.05;89.32;99491.81;5032532;28;20416;-76
2023/06/01 01:19:56;;;;;;;12.77;9.68;;;;;;;16.02;89.94;99495.38;5034849;28;20064;-76
2023/06/01 01:22:59;;;;;;;17.48;8.93;;;;;;;16.32;88.11;99493.94;5034556;28;20550;-76
2023/06/01 01:25:55;;;;;;;14.07;9.57;;;;;;;16.03;88.89;99497.00;5034832;28;20091;-76
2023/06/01 01:28:35;;;;;;;17.65;9.23;;;;;;;15.91;90.02;99489.50;5034688;28;20036;-76
2023/06/01 01:31:03;;;;;;;15.30;9.80;;;;;;;16.14;89.02;99489.56;5020628;28;20103;-76
2023/06/01 01:33:32;;;;;;;10.65;8.93;;;;;;;16.41;87.72;99489.69;5033096;28;20033;-76
2023/06/01 01:36:00;;;;;;;17.98;9.95;;;;;;;16.33;86.94;99489.91;5034753;28;20029;-76
2023/06/01 01:38:25;;;;;;;14.25;9.93;;;;;;;15.91;89.64;99494.31;5033023;28;20037;-76
2023/06/01 01:40:52;;;;;;;14.82;9.65;;;;;;;15.37;93.70;99488.31;5034264;28;20029;-76
2023/06/01 01:43:19;;;;;;;24.02;10.27;;;;;;;15.05;96.66;99482.72;5034357;28;20478;-76
2023/06/01 01:45:52;;;;;;;13.60;10.15;;;;;;;15.05;98.22;99480.72;5033116;28;20055;-76
2023/06/01 01:48:28;;;;;;;13.82;9.68;;;;;;;14.81;98.62;99488.19;5033139;28;20025;-76
2023/06/01 01:51:03;;;;;;;17.17;10.80;;;;;;;14.82;99.48;99477.72;5034246;28;20031;-76
2023/06/01 01:53:30;;;;;;;18.65;10.15;;;;;;;14.77;98.94;99483.66;5032638;28;20083;-76
2023/06/01 01:55:56;;;;;;;15.30;9.98;;;;;;;14.74;98.69;99483.22;5034140;28;20088;-76
2023/06/01 01:58:26;;;;;;;17.75;9.88;;;;;;;14.91;97.42;99489.63;5034117;28;20433;-76
2023/06/01 02:00:52;;;;;;;13.25;9.73;;;;;;;15.13;96.06;99501.44;5031825;28;20045;-76
2023/06/01 02:03:18;;;;;;;11.38;9.55;;;;;;;15.01;95.76;99489.09;5033929;28;20095;-76
2023/06/01 02:05:45;;;;;;;13.82;10.77;;;;;;;15.04;95.94;99501.63;5033233;28;20053;-76
2023/06/01 02:08:11;;;;;;;13.35;9.73;;;;;;;15.15;95.28;99501.88;5033987;28;20022;-76
2023/06/01 02:10:37;;;;;;;14.95;10.18;;;;;;;15.22;94.38;99499.25;5032652;28;20029;-76
2023/06/01 02:13:03;;;;;;;16.92;11.02;;;;;;;15.12;94.54;99500.59;5032315;28;20466;-76
2023/06/01 02:15:28;;;;;;;17.23;10.98;;;;;;;15.02;96.22;99512.41;5032100;28;20036;-76
2023/06/01 02:17:54;;;;;;;15.93;10.02;;;;;;;14.94;96.89;99511.44;5032498;28;20114;-76
2023/06/01 02:20:20;;;;;;;22.52;11.00;;;;;;;14.84;97.25;99514.78;5032649;28;20029;-76
2023/06/01 02:22:45;;;;;;;27.85;13.90;;;;;;;14.97;97.22;99516.34;5033527;28;20025;-76
2023/06/01 02:25:11;;;;;;;18.65;11.48;;;;;;;14.73;97.41;99515.34;5031117;28;20097;-76
2023/06/01 02:27:36;;;;;;;19.67;12.82;;;;;;;14.48;98.60;99517.47;5032398;28;20061;-76
2023/06/01 02:30:06;;;;;;;19.20;12.63;;;;;;;14.36;99.83;99509.09;5033525;28;20029;-76
2023/06/01 02:32:32;;;;;;;17.50;12.20;;;;;;;14.44;99.98;99505.31;5033347;28;20040;-76
2023/06/01 02:34:58;;;;;;;36.25;11.73;;;;;;;14.68;99.15;99512.75;5031243;28;20439;-76
2023/06/01 02:37:23;;;;;;;26.20;11.18;;;;;;;15.13;96.53;99516.31;5012483;28;20065;-76
2023/06/01 02:39:49;;;;;;;33.67;12.23;;;;;;;15.28;94.58;99514.69;5033118;28;20132;-76
2023/06/01 02:42:14;;;;;;;29.10;11.32;;;;;;;15.42;93.05;99513.38;5032035;28;20025;-76
2023/06/01 02:44:40;;;;;;;22.23;11.48;;;;;;;15.51;92.70;99510.38;5033309;28;20029;-76
2023/06/01 02:47:06;;;;;;;22.00;11.35;;;;;;;15.37;93.02;99510.84;5033306;28;20463;-76
2023/06/01 02:49:31;;;;;;;19.48;11.52;;;;;;;15.60;92.51;99516.59;5032536;28;20025;-76
2023/06/01 02:51:56;;;;;;;24.83;11.20;;;;;;;15.60;91.40;99513.78;5031019;28;20523;-76
2023/06/01 02:54:22;;;;;;;15.98;11.57;;;;;;;15.26;93.48;99522.69;5033087;28;20037;-76
2023/06/01 02:56:47;;;;;;;25.05;11.60;;;;;;;15.23;92.85;99514.97;5032767;28;20033;-76
2023/06/01 02:59:13;;;;;;;22.55;11.10;;;;;;;14.89;94.70;99511.72;5031164;28;20033;-76
2023/06/01 03:01:39;;;;;;;21.05;11.35;;;;;;;14.88;95.15;99512.91;5033038;28;20029;-76
2023/06/01 03:04:04;;;;;;;21.58;11.23;;;;;;;15.11;93.66;99507.44;5032683;28;20025;-76
2023/06/01 03:06:36;;;;;;;21.20;11.85;;;;;;;15.02;94.08;99513.25;5030733;28;20102;-76
2023/06/01 03:09:05;;;;;;;21.02;12.10;;;;;;;14.69;96.07;99513.59;5032509;28;20386;-76
2023/06/01 03:11:30;;;;;;;20.40;12.25;;;;;;;14.62;97.61;99514.22;5032762;28;20033;-76
2023/06/01 03:13:58;;;;;;;22.02;12.18;;;;;;;14.35;99.02;99521.53;5032478;28;20033;-76
2023/06/01 03:16:25;;;;;;;24.85;12.70;;;;;;;14.43;98.85;99517.75;5030486;28;20033;-76
2023/06/01 03:18:52;;;;;;;23.38;11.45;;;;;;;14.48;98.46;99516.63;5032702;28;20029;-76
2023/06/01 03:21:17;;;;;;;28.80;13.40;;;;;;;14.55;98.16;99516.84;5032582;28;20029;-76
2023/06/01 03:23:43;;;;;;;14.77;10.48;;;;;;;14.37;99.49;99517.19;5032321;28;20416;-76
2023/06/01 03:26:12;;;;;;;22.13;11.63;;;;;;;14.56;99.45;99518.47;5031647;28;20061;-76
2023/06/01 03:28:38;;;;;;;26.40;12.20;;;;;;;14.42;99.08;99519.72;5031203;28;20025;-76
2023/06/01 03:31:04;;;;;;;19.90;11.27;;;;;;;14.44;99.57;99517.34;5031696;28;20504;-76
2023/06/01 03:33:30;;;;;;;16.95;11.10;;;;;;;14.57;98.32;99525.72;5031011;28;20021;-75
2023/06/01 03:35:56;;;;;;;17.10;11.02;;;;;;;14.57;98.61;99509.66;5032247;28;20386;-76
2023/06/01 03:38:21;;;;;;;24.42;11.85;;;;;;;14.89;97.13;99542.69;5030940;28;20028;-76
2023/06/01 03:40:47;;;;;;;21.95;11.05;;;;;;;15.02;95.92;99532.13;5030552;28;20544;-76
2023/06/01 03:43:12;;;;;;;15.65;11.35;;;;;;;14.87;96.34;99540.22;5030042;28;20116;-76
2023/06/01 03:45:38;;;;;;;23.48;12.18;;;;;;;15.00;96.09;99535.34;5032117;28;20033;-76
2023/06/01 03:48:03;;;;;;;23.13;10.90;;;;;;;15.02;96.09;99529.31;5032092;28;20026;-76
2023/06/01 03:50:29;;;;;;;16.80;11.63;;;;;;;15.21;95.30;99542.69;5030839;28;20056;-76
2023/06/01 03:52:55;;;;;;;26.67;13.07;;;;;;;15.36;94.27;99549.47;5030492;28;20045;-76
2023/06/01 03:55:20;;;;;;;19.98;11.40;;;;;;;15.41;93.90;99545.56;5031919;28;20520;-76
2023/06/01 03:57:46;;;;;;;18.85;12.50;;;;;;;15.27;95.01;99541.22;5028677;28;20108;-76
2023/06/01 04:00:18;;;;;;;18.38;11.13;;;;;;;15.23;95.93;99543.16;5025965;28;20037;-76
2023/06/01 04:03:01;;;;;;;19.67;11.10;;;;;;;15.50;95.29;99549.00;5024519;28;20120;-76
2023/06/01 04:05:26;;;;;;;22.38;11.32;;;;;;;15.68;94.21;99540.13;5028823;28;20036;-76
2023/06/01 04:07:54;;;;;;;24.83;12.45;;;;;;;15.80;93.05;99537.19;5029777;28;20116;-76
2023/06/01 04:10:20;;;;;;;26.55;13.98;;;;;;;15.59;94.45;99534.69;5028048;28;20033;-75
2023/06/01 04:12:48;;;;;;;20.65;11.55;;;;;;;15.64;94.10;99544.88;5021734;28;20633;-78
2023/06/01 04:15:16;;;;;;;21.48;11.93;;;;;;;15.63;94.71;99541.25;5024762;28;20041;-74
2023/06/01 04:17:43;;;;;;;19.67;12.05;;;;;;;15.46;96.01;99547.28;5030090;28;20033;-74
2023/06/01 04:20:10;;;;;;;30.55;12.10;;;;;;;15.28;97.98;99531.59;5028008;28;20029;-75
2023/06/01 04:22:36;;;;;;;20.33;11.65;;;;;;;15.34;99.16;99549.03;5027733;28;20044;-74
2023/06/01 04:25:13;;;;;;;27.75;12.48;;;;;;;15.38;99.63;99552.75;5012217;28;20125;-74
2023/06/01 04:27:44;;;;;;;20.83;11.10;;;;;;;15.46;99.24;99553.75;5012043;28;20113;-78
2023/06/01 04:30:11;;;;;;;13.52;10.45;;;;;;;15.76;98.40;99560.88;5028667;28;20413;-75
2023/06/01 04:32:39;;;;;;;19.08;10.40;;;;;;;15.78;98.14;99553.66;5028695;28;20481;-76
2023/06/01 04:35:06;;;;;;;13.10;10.82;;;;;;;15.97;96.83;99560.56;5025785;28;20068;-75
2023/06/01 04:37:37;;;;;;;14.98;10.13;;;;;;;16.16;95.89;99565.38;5027990;28;20462;-75
2023/06/01 04:40:08;;;;;;;23.33;11.65;;;;;;;16.27;94.66;99559.97;5019209;28;20029;-77
2023/06/01 04:42:41;;;;;;;18.73;10.73;;;;;;;16.24;95.19;99570.00;5025795;28;20037;-77
2023/06/01 04:45:09;;;;;;;24.27;11.20;;;;;;;16.11;95.37;99562.88;5028851;28;20467;-79
2023/06/01 04:47:37;;;;;;;16.08;9.85;;;;;;;16.08;92.26;99567.25;5011393;28;20029;-80
2023/06/01 04:50:05;;;;;;;40.05;10.60;;;;;;;16.13;92.81;99558.47;5018922;28;20055;-82
2023/06/01 04:52:31;;;;;;;16.25;9.68;;;;;;;15.92;93.89;99563.66;5028955;28;20092;-78
2023/06/01 04:54:56;;;;;;;14.10;9.85;;;;;;;15.94;93.08;99561.31;5029674;28;20061;-81
2023/06/01 04:57:23;;;;;;;27.15;12.82;;;;;;;16.09;93.31;99557.59;5029102;28;20036;-80
2023/06/01 04:59:48;;;;;;;20.13;10.07;;;;;;;16.37;92.35;99561.38;5029798;28;20040;-81
2023/06/01 05:02:14;;;;;;;18.13;10.05;;;;;;;16.47;90.99;99565.59;5031097;28;20034;-80
2023/06/01 05:04:40;;;;;;;14.50;10.20;;;;;;;16.59;90.03;99562.63;5031069;28;20061;-81
2023/06/01 05:07:05;;;;;;;13.85;10.50;;;;;;;16.59;90.27;99559.78;5029810;28;20041;-80
2023/06/01 05:09:31;;;;;;;18.35;10.77;;;;;;;16.75;88.65;99564.50;5027328;28;20029;-80
2023/06/01 05:11:56;;;;;;;14.60;9.77;;;;;;;16.93;88.17;99553.53;5028640;28;20030;-80
2023/06/01 05:14:22;;;;;;;18.15;11.15;;;;;;;16.74;89.70;99557.22;5027669;28;20045;-81
2023/06/01 05:16:48;;;;;;;19.08;10.02;;;;;;;17.06;89.38;99557.84;5028853;28;20036;-81
2023/06/01 05:19:14;;;;;;;16.98;11.45;;;;;;;17.17;88.12;99551.56;5026758;28;20176;-80
2023/06/01 05:21:43;;;;;;;15.30;10.13;;;;;;;17.19;87.20;99555.63;5026771;28;20116;-80
2023/06/01 05:24:08;;;;;;;19.20;9.88;;;;;;;17.21;87.46;99558.91;5027784;28;20560;-76
2023/06/01 05:26:34;;;;;;;13.50;10.52;;;;;;;17.25;87.54;99554.13;5017001;28;20116;-78
2023/06/01 05:28:59;;;;;;;16.42;9.88;;;;;;;17.61;85.03;99553.03;5021796;28;20037;-77
2023/06/01 05:31:25;;;;;;;17.02;9.55;;;;;;;17.93;83.95;99552.69;5017716;28;20029;-75
2023/06/01 05:33:51;;;;;;;14.95;9.70;;;;;;;17.96;82.84;99557.56;5019884;28;20084;-78
2023/06/01 05:36:17;;;;;;;13.23;9.50;;;;;;;18.15;82.16;99550.97;5017551;28;20028;-75
2023/06/01 05:38:42;;;;;;;18.83;9.57;;;;;;;18.44;78.97;99556.19;5016340;28;20104;-72
2023/06/01 05:41:08;;;;;;;11.23;8.50;;;;;;;18.64;78.26;99559.63;5016979;28;20104;-79
2023/06/01 05:43:37;;;;;;;12.88;8.02;;;;;;;18.53;76.58;99562.38;5022082;28;20034;-84
2023/06/01 05:46:03;;;;;;;12.35;8.73;;;;;;;18.52;77.47;99561.56;5023946;28;20126;-84
2023/06/01 05:48:28;;;;;;;19.63;9.88;;;;;;;18.93;76.85;99565.63;5020154;28;20018;-81
2023/06/01 05:50:54;;;;;;;10.65;8.02;;;;;;;19.22;74.26;99566.72;5025492;28;20132;-80
2023/06/01 05:53:20;;;;;;;9.98;8.50;;;;;;;19.49;72.77;99563.69;5028415;28;20555;-84
2023/06/01 05:55:45;;;;;;;11.75;7.90;;;;;;;19.45;71.54;99567.69;5032368;28;20036;-82
2023/06/01 05:58:11;;;;;;;13.15;8.23;;;;;;;19.62;71.03;99574.72;5030888;28;20025;-83
2023/06/01 06:00:36;;;;;;;19.02;10.02;;;;;;;19.96;69.56;99559.53;5038858;28;20029;-79
2023/06/01 06:03:04;;;;;;;15.90;7.93;;;;;;;19.89;68.64;99563.94;5032617;28;20033;-81
2023/06/01 06:05:29;;;;;;;16.13;8.55;;;;;;;19.49;69.76;99555.16;5034239;28;20026;-81
2023/06/01 06:07:55;;;;;;;10.75;8.48;;;;;;;20.01;68.90;99559.97;5031219;28;20029;-80
2023/06/01 06:10:20;;;;;;;12.05;7.97;;;;;;;20.24;67.15;99561.69;5032868;28;20456;-80
2023/06/01 06:12:46;;;;;;;12.07;8.65;;;;;;;20.70;67.86;99562.25;5032726;28;20033;-82
2023/06/01 06:15:11;;;;;;;15.85;8.70;;;;;;;20.98;66.12;99572.09;5026255;28;20033;-79
2023/06/01 06:17:37;;;;;;;13.00;7.88;;;;;;;21.09;65.01;99564.38;5024490;28;20698;-80
2023/06/01 06:20:08;;;;;;;12.45;8.10;;;;;;;21.20;64.90;99558.72;5023169;28;20021;-80
2023/06/01 06:22:34;;;;;;;13.38;8.23;;;;;;;21.51;62.63;99555.44;5021886;28;20053;-80
2023/06/01 06:25:00;;;;;;;12.75;8.02;;;;;;;21.42;62.41;99559.50;5026521;28;20505;-79
2023/06/01 06:27:26;;;;;;;17.13;8.85;;;;;;;21.66;61.85;99559.06;5021622;28;20033;-80
2023/06/01 06:29:52;;;;;;;14.68;9.07;;;;;;;21.67;62.03;99561.53;5032226;28;20423;-75
2023/06/01 06:32:19;;;;;;;12.35;7.82;;;;;;;21.59;61.28;99554.19;5031501;28;20036;-76
2023/06/01 06:34:45;;;;;;;12.82;8.75;;;;;;;21.71;60.38;99556.66;5031963;28;20021;-76
2023/06/01 06:37:11;;;;;;;13.57;7.70;;;;;;;21.67;60.72;99555.06;5031857;28;20079;-76
2023/06/01 06:39:37;;;;;;;11.32;7.40;;;;;;;22.01;59.06;99546.00;5032727;28;20029;-76
2023/06/01 06:42:03;;;;;;;14.93;7.63;;;;;;;22.28;58.49;99554.84;5032637;28;20032;-75
2023/06/01 06:44:29;;;;;;;15.45;8.63;;;;;;;22.47;57.78;99554.78;5032012;28;20622;-76
2023/06/01 06:46:58;;;;;;;12.80;7.60;;;;;;;22.53;58.64;99553.94;5030162;28;20104;-75
2023/06/01 06:49:24;;;;;;;22.55;11.57;;;;;;;22.49;58.24;99555.19;5019625;28;20030;-76
2023/06/01 06:51:49;;;;;;;18.02;8.00;;;;;;;22.56;59.19;99541.75;5024292;28;20053;-77
2023/06/01 06:54:15;;;;;;;16.20;7.38;;;;;;;22.74;57.68;99545.69;5017691;28;20091;-77
2023/06/01 06:56:40;;;;;;;12.95;7.75;;;;;;;23.03;56.24;99545.50;5020703;28;20126;-77
2023/06/01 06:59:05;;;;;;;11.63;7.57;;;;;;;22.65;57.13;99543.31;5026048;28;20029;-77
2023/06/01 07:01:35;;;;;;;11.27;6.50;;;;;;;22.86;57.69;99548.88;5024086;28;20029;-77
2023/06/01 07:04:01;;;;;;;18.30;9.75;;;;;;;23.23;58.64;99548.59;5011719;28;20018;-77
2023/06/01 07:06:27;;;;;;;10.05;6.63;;;;;;;23.36;56.81;99541.19;5031375;28;20117;-77
2023/06/01 07:08:52;;;;;;;12.20;6.80;;;;;;;23.37;57.87;99539.94;5031262;28;20100;-77
2023/06/01 07:11:19;;;;;;;8.90;6.53;;;;;;;23.62;55.58;99541.75;5014513;28;20048;-77
2023/06/01 07:13:44;;;;;;;9.55;5.55;;;;;;;23.74;54.55;99536.75;5020131;28;20034;-77
2023/06/01 07:16:11;;;;;;;9.60;6.20;;;;;;;23.83;53.41;99546.44;5022448;28;20054;-77
2023/06/01 07:18:37;;;;;;;13.80;5.55;;;;;;;23.84;53.33;99535.81;5020838;28;20112;-77
2023/06/01 07:21:02;;;;;;;9.52;6.47;;;;;;;23.84;52.76;99542.34;5013696;28;20137;-77
2023/06/01 07:23:28;;;;;;;9.50;6.70;;;;;;;23.68;53.35;99540.06;5019777;28;20061;-77
2023/06/01 07:25:53;;;;;;;11.32;6.90;;;;;;;24.07;53.28;99540.06;5018930;28;20040;-77
2023/06/01 07:28:18;;;;;;;11.00;6.80;;;;;;;24.17;53.99;99533.44;5025678;28;20028;-73
2023/06/01 07:30:44;;;;;;;10.88;6.18;;;;;;;24.25;53.49;99534.13;5025077;28;20496;-77
2023/06/01 07:33:10;;;;;;;14.45;6.78;;;;;;;24.34;53.23;99527.91;5029549;28;20496;-80
2023/06/01 07:35:36;;;;;;;8.93;5.80;;;;;;;24.40;51.91;99529.06;5017288;28;20025;-80
2023/06/01 07:38:03;;;;;;;12.52;6.38;;;;;;;24.55;52.09;99521.06;5026492;28;20393;-76
2023/06/01 07:40:30;;;;;;;6.88;5.38;;;;;;;23.90;52.31;99519.84;5019294;28;20029;-76
2023/06/01 07:42:55;;;;;;;14.15;7.03;;;;;;;24.20;52.66;99523.19;5021010;28;20068;-76
2023/06/01 07:45:21;;;;;;;10.00;7.25;;;;;;;24.45;53.56;99519.19;5018523;28;20405;-75
2023/06/01 07:47:47;;;;;;;8.88;5.97;;;;;;;24.48;51.86;99510.53;5014487;28;20033;-77
2023/06/01 07:50:12;;;;;;;11.45;7.93;;;;;;;23.79;53.46;99517.09;5016520;28;20103;-77
2023/06/01 07:52:38;;;;;;;8.18;6.05;;;;;;;24.40;54.51;99514.75;5016177;28;20070;-77
2023/06/01 07:55:04;;;;;;;7.15;5.75;;;;;;;24.73;51.49;99505.72;5013894;28;20084;-77
2023/06/01 07:57:30;;;;;;;10.38;7.57;;;;;;;25.10;50.31;99512.50;5017472;28;20037;-77
2023/06/01 07:59:56;;;;;;;11.13;6.75;;;;;;;24.89;50.83;99508.75;5031880;28;20110;-77
2023/06/01 08:02:23;;;;;;;12.88;6.30;;;;;;;24.90;51.13;99501.78;5028783;28;20046;-77
2023/06/01 08:04:48;;;;;;;8.27;6.03;;;;;;;25.01;49.93;99506.53;5011628;28;20610;-77
2023/06/01 08:07:16;;;;;;;9.65;6.70;;;;;;;25.42;49.75;99493.16;5012195;28;20111;-77
2023/06/01 08:09:43;;;;;;;12.07;6.43;;;;;;;25.78;50.03;99496.19;5023071;28;20037;-76
2023/06/01 08:12:08;;;;;;;16.63;6.55;;;;;;;25.95;49.25;99490.53;5024732;28;20109;-78
2023/06/01 08:14:34;;;;;;;10.70;5.70;;;;;;;26.07;46.19;99491.94;5030438;28;20107;-79
2023/06/01 08:17:01;;;;;;;15.20;5.57;;;;;;;25.98;47.49;99485.97;5021017;28;20052;-77
2023/06/01 08:19:27;;;;;;;10.65;5.88;;;;;;;26.08;46.96;99497.19;5022706;28;20057;-77
2023/06/01 08:21:53;;;;;;;9.80;5.28;;;;;;;26.27;46.57;99491.13;5018089;28;20480;-77
2023/06/01 08:24:22;;;;;;;6.30;5.40;;;;;;;26.55;46.06;99501.13;5013124;28;20049;-77
2023/06/01 08:26:48;;;;;;;10.43;5.60;;;;;;;25.97;46.22;99495.81;5016780;28;20105;-77
2023/06/01 08:29:13;;;;;;;9.90;5.57;;;;;;;26.49;47.02;99486.53;5024123;28;20104;-77
2023/06/01 08:31:39;;;;;;;10.90;6.97;;;;;;;26.50;45.55;99498.81;5019689;28;20152;-77
2023/06/01 08:34:05;;;;;;;8.13;5.50;;;;;;;26.61;44.15;99492.81;5018399;28;20033;-77
2023/06/01 08:36:31;;;;;;;12.88;6.93;;;;;;;26.67;43.73;99490.22;5023758;28;20044;-80
2023/06/01 08:38:56;;;;;;;7.15;5.57;;;;;;;26.76;43.83;99482.59;5023092;28;20023;-75
2023/06/01 08:41:22;;;;;;;13.73;6.22;;;;;;;26.74;44.16;99484.34;5021543;28;20021;-75
2023/06/01 08:43:55;;;;;;;11.13;6.20;;;;;;;27.02;44.04;99487.78;5018362;28;20033;-74
2023/06/01 08:46:22;;;;;;;6.90;5.72;;;;;;;27.01;43.02;99471.81;5011668;28;20574;-75
2023/06/01 08:48:52;;;;;;;9.82;5.53;;;;;;;26.74;43.45;99478.59;5023412;28;20022;-73
2023/06/01 08:51:18;;;;;;;9.95;5.07;;;;;;;26.83;44.57;99473.03;5025242;28;20053;-73
2023/06/01 08:53:46;;;;;;;12.40;5.40;;;;;;;26.78;42.58;99464.97;5015651;28;20037;-72
2023/06/01 08:56:12;;;;;;;5.95;5.32;;;;;;;27.19;42.24;99471.34;5020342;28;20029;-74
2023/06/01 08:58:40;;;;;;;8.52;5.45;;;;;;;27.54;42.37;99471.69;5030615;28;20060;-76
2023/06/01 09:01:06;;;;;;;8.23;4.70;;;;;;;27.50;43.18;99468.06;5029775;28;20025;-75
2023/06/01 09:03:31;;;;;;;9.52;5.22;;;;;;;27.67;42.65;99468.84;5027326;28;20024;-76
2023/06/01 09:05:57;;;;;;;7.45;4.80;;;;;;;27.42;40.07;99461.69;5018779;28;20037;-77
2023/06/01 09:08:24;;;;;;;7.85;4.97;;;;;;;27.24;40.77;99470.78;5010271;28;20049;-73
2023/06/01 09:10:50;;;;;;;14.15;5.75;;;;;;;27.42;39.17;99460.91;5011394;28;20448;-76
2023/06/01 09:13:33;;;;;;;6.78;5.00;;;;;;;27.67;39.85;99456.56;5011952;28;20096;-74
2023/06/01 09:15:59;;;;;;;10.35;6.38;;;;;;;27.70;39.98;99449.91;5025076;28;20033;-75
2023/06/01 09:18:25;;;;;;;10.80;5.65;;;;;;;27.86;40.48;99443.28;5025526;28;20074;-75
2023/06/01 09:20:53;;;;;;;10.07;5.35;;;;;;;27.60;41.00;99441.13;5021404;28;20030;-75
2023/06/01 09:23:28;;;;;;;7.93;5.03;;;;;;;27.49;41.17;99446.34;5020144;28;20469;-75
2023/06/01 09:26:10;;;;;;;12.25;5.60;;;;;;;27.90;40.84;99446.84;5011271;28;20032;-74
2023/06/01 09:28:54;;;;;;;11.50;4.15;;;;;;;27.97;37.28;99445.84;5029965;28;20459;-75
2023/06/01 09:31:44;;;;;;;7.35;4.60;;;;;;;27.94;36.85;99446.75;5029021;28;20215;-76
2023/06/01 09:34:15;;;;;;;22.23;5.68;;;;;;;27.81;38.03;99438.91;5024136;28;20390;-75
2023/06/01 09:36:41;;;;;;;5.47;4.30;;;;;;;28.16;35.16;99444.84;5011860;28;20030;-74
2023/06/01 09:39:15;;;;;;;9.70;5.45;;;;;;;28.37;36.61;99439.72;5010870;28;20117;-77
2023/06/01 09:41:53;;;;;;;9.52;5.30;;;;;;;28.23;35.39;99431.53;5017976;28;20036;-77
2023/06/01 09:44:24;;;;;;;10.07;4.32;;;;;;;28.05;34.92;99437.81;5014695;28;20018;-78
2023/06/01 09:46:58;;;;;;;7.03;4.13;;;;;;;27.93;34.43;99427.91;5020045;28;20037;-76
2023/06/01 09:49:26;;;;;;;10.98;4.75;;;;;;;28.08;35.47;99434.81;5027971;28;20022;-76
2023/06/01 09:52:14;;;;;;;7.65;5.00;;;;;;;28.14;36.23;99433.00;5026472;28;20045;-76
2023/06/01 09:54:43;;;;;;;7.72;4.18;;;;;;;27.92;33.98;99429.16;5028365;28;20151;-76
2023/06/01 09:57:09;;;;;;;7.45;4.30;;;;;;;28.27;34.18;99417.88;5030515;28;20059;-76
2023/06/01 09:59:41;;;;;;;10.60;4.30;;;;;;;28.06;35.65;99420.09;5030920;28;20029;-75
2023/06/01 10:02:10;;;;;;;6.75;4.20;;;;;;;28.42;35.46;99421.09;5028827;28;20048;-76
2023/06/01 10:04:39;;;;;;;7.60;4.40;;;;;;;28.26;33.13;99413.38;5028514;28;20030;-76
2023/06/01 10:07:06;;;;;;;7.93;3.97;;;;;;;28.47;33.82;99416.81;5024852;28;20079;-76
2023/06/01 10:09:38;;;;;;;5.13;4.28;;;;;;;28.40;34.59;99414.97;5039421;28;20028;-76
2023/06/01 10:12:04;;;;;;;7.32;4.15;;;;;;;28.08;34.37;99420.44;5027268;28;20052;-75
2023/06/01 10:14:30;;;;;;;9.68;4.50;;;;;;;28.39;33.24;99410.50;5025129;28;20496;-75
2023/06/01 10:16:55;;;;;;;9.95;4.68;;;;;;;28.12;33.96;99406.78;5025103;28;20092;-76
2023/06/01 10:19:21;;;;;;;4.55;3.97;;;;;;;28.25;33.40;99408.91;5032188;28;20052;-75
2023/06/01 10:21:47;;;;;;;5.70;4.10;;;;;;;28.16;32.81;99407.47;5030539;28;20120;-75
2023/06/01 10:24:14;;;;;;;6.80;3.72;;;;;;;28.26;32.48;99404.75;5028526;28;20068;-76
2023/06/01 10:27:07;;;;;;;13.38;4.68;;;;;;;28.46;31.46;99407.41;5029648;28;20108;-76
2023/06/01 10:29:33;;;;;;;6.70;4.65;;;;;;;28.49;32.60;99399.94;5016794;28;20420;-77
2023/06/01 10:31:59;;;;;;;8.45;5.15;;;;;;;28.41;31.05;99403.03;5021783;28;20488;-77
2023/06/01 10:34:44;;;;;;;6.35;4.18;;;;;;;28.50;32.01;99395.78;5028462;28;20064;-79
2023/06/01 10:37:14;;;;;;;6.50;4.38;;;;;;;28.52;32.37;99399.00;5017813;28;20931;-75
2023/06/01 10:39:40;;;;;;;5.90;4.00;;;;;;;28.51;31.83;99385.88;5022140;28;20044;-75
2023/06/01 10:42:12;;;;;;;9.68;4.45;;;;;;;28.43;31.78;99383.25;5029052;28;20037;-75
2023/06/01 10:44:46;;;;;;;9.52;4.07;;;;;;;28.50;31.99;99378.53;5026015;28;20104;-75
2023/06/01 10:47:12;;;;;;;17.42;4.45;;;;;;;28.28;32.18;99379.22;5025971;28;20107;-76
2023/06/01 10:49:46;;;;;;;6.03;4.15;;;;;;;28.35;32.40;99366.69;5030558;28;20034;-75
2023/06/01 10:52:40;;;;;;;8.15;3.92;;;;;;;28.45;32.06;99369.19;5026330;28;20111;-74
2023/06/01 10:55:13;;;;;;;5.28;4.10;;;;;;;28.55;31.68;99363.56;5024194;28;20057;-74
2023/06/01 10:57:43;;;;;;;9.23;5.03;;;;;;;28.89;32.08;99361.22;5016208;28;20037;-74
2023/06/01 11:00:17;;;;;;;6.80;3.78;;;;;;;29.01;30.63;99363.25;5026242;28;20041;-75
2023/06/01 11:02:52;;;;;;;5.30;4.13;;;;;;;28.80;32.44;99359.84;5025536;28;20033;-73
2023/06/01 11:05:50;;;;;;;4.70;3.47;;;;;;;28.73;32.47;99352.25;5029546;28;20037;-75
2023/06/01 11:08:31;;;;;;;14.43;4.25;;;;;;;28.87;31.31;99344.41;5025624;28;20475;-74
2023/06/01 11:11:00;;;;;;;5.47;3.65;;;;;;;28.89;30.61;99344.75;5027188;28;20041;-75
2023/06/01 11:13:31;;;;;;;6.43;4.13;;;;;;;28.78;31.51;99339.38;5020535;28;20393;-74
2023/06/01 11:16:21;;;;;;;9.15;4.35;;;;;;;28.68;30.35;99344.19;5029068;28;20535;-75
2023/06/01 11:18:49;;;;;;;5.13;4.22;;;;;;;28.88;30.06;99328.75;5027022;28;20507;-74
2023/06/01 11:21:17;;;;;;;9.57;4.10;;;;;;;29.14;30.95;99329.47;5025931;28;20064;-75
2023/06/01 11:23:46;;;;;;;7.07;4.28;;;;;;;29.46;30.93;99312.28;5032284;28;20033;-74
2023/06/01 11:26:15;;;;;;;7.10;4.07;;;;;;;29.53;30.42;99323.53;5026689;28;20034;-75
2023/06/01 11:28:41;;;;;;;7.03;4.30;;;;;;;29.36;30.30;99313.47;5025815;28;20034;-74